createdAt,value
2022-12-08T00:00:03.105Z,38.10
2022-12-08T00:02:13.958Z,38.20
2022-12-08T00:04:15.805Z,38.90
2022-12-08T00:06:45.290Z,38.30
2022-12-08T00:09:05.519Z,38.30
2022-12-08T00:11:13.092Z,38.40
2022-12-08T00:13:18.482Z,38.50
2022-12-08T00:15:20.122Z,38.40
2022-12-08T00:17:21.828Z,38.40
2022-12-08T00:19:24.756Z,38.40
2022-12-08T00:21:26.399Z,38.40
2022-12-08T00:23:28.309Z,38.60
2022-12-08T00:25:31.230Z,38.50
2022-12-08T00:27:35.911Z,38.60
2022-12-08T00:29:39.055Z,38.60
2022-12-08T00:31:40.823Z,38.40
2022-12-08T00:33:42.728Z,38.50
2022-12-08T00:35:46.536Z,38.40
2022-12-08T00:37:48.359Z,38.40
2022-12-08T00:39:50.156Z,38.60
2022-12-08T00:42:13.112Z,38.40
2022-12-08T00:44:18.887Z,38.50
2022-12-08T00:46:21.154Z,38.40
2022-12-08T00:48:22.992Z,38.40
2022-12-08T00:50:24.656Z,38.50
2022-12-08T00:52:26.389Z,38.50
2022-12-08T00:54:28.049Z,38.60
2022-12-08T00:56:30.099Z,38.50
2022-12-08T00:58:33.025Z,38.50
2022-12-08T01:00:34.669Z,38.50
2022-12-08T01:02:36.343Z,38.60
2022-12-08T01:04:40.547Z,38.60
2022-12-08T01:06:43.372Z,38.60
2022-12-08T01:08:45.166Z,39.30
2022-12-08T01:10:46.895Z,38.80
2022-12-08T01:12:48.537Z,38.80
2022-12-08T01:15:02.032Z,39.00
2022-12-08T01:17:04.354Z,39.00
2022-12-08T01:19:06.087Z,38.90
2022-12-08T01:21:08.382Z,39.00
2022-12-08T01:23:12.332Z,39.70
2022-12-08T01:25:14.174Z,39.20
2022-12-08T01:27:16.651Z,39.50
2022-12-08T01:29:19.562Z,39.50
2022-12-08T01:31:26.847Z,39.60
2022-12-08T01:33:31.406Z,39.80
2022-12-08T01:35:34.614Z,39.90
2022-12-08T01:37:36.262Z,39.90
2022-12-08T01:39:37.939Z,39.90
2022-12-08T01:41:42.230Z,39.80
2022-12-08T01:44:23.974Z,39.90
2022-12-08T01:46:26.453Z,39.80
2022-12-08T01:48:28.904Z,40.10
2022-12-08T01:50:31.178Z,39.80
2022-12-08T01:52:38.839Z,39.90
2022-12-08T01:54:52.804Z,39.90
2022-12-08T01:57:11.657Z,39.90
2022-12-08T01:59:13.556Z,40.00
2022-12-08T02:01:17.703Z,40.10
2022-12-08T02:03:28.540Z,40.10
2022-12-08T02:05:36.964Z,40.00
2022-12-08T02:07:38.789Z,39.90
2022-12-08T02:09:41.549Z,39.90
2022-12-08T02:11:43.171Z,40.00
2022-12-08T02:13:47.063Z,40.20
2022-12-08T02:16:14.822Z,40.30
2022-12-08T02:18:26.511Z,40.20
2022-12-08T02:20:46.952Z,40.20
2022-12-08T02:23:04.052Z,40.30
2022-12-08T02:25:29.565Z,40.40
2022-12-08T02:27:41.085Z,40.40
2022-12-08T02:30:03.684Z,40.30
2022-12-08T02:32:59.208Z,40.40
2022-12-08T02:35:10.993Z,40.30
2022-12-08T02:37:37.883Z,40.30
2022-12-08T02:40:08.746Z,40.30
2022-12-08T02:42:27.637Z,40.30
2022-12-08T02:44:42.550Z,40.20
2022-12-08T02:47:04.849Z,40.30
2022-12-08T02:49:09.696Z,40.30
2022-12-08T02:51:11.394Z,40.20
2022-12-08T02:55:22.788Z,40.20
2022-12-08T02:57:50.915Z,40.10
2022-12-08T03:00:13.313Z,40.00
2022-12-08T03:02:15.011Z,40.20
2022-12-08T03:04:34.451Z,40.10
2022-12-08T03:06:50.973Z,40.20
2022-12-08T03:09:11.999Z,40.10
2022-12-08T03:11:20.293Z,40.30
2022-12-08T03:13:34.111Z,40.10
2022-12-08T03:15:38.582Z,40.10
2022-12-08T03:17:45.449Z,40.10
2022-12-08T03:19:53.771Z,40.20
2022-12-08T03:22:03.422Z,40.20
2022-12-08T03:24:07.827Z,40.20
2022-12-08T03:26:18.475Z,40.40
2022-12-08T03:28:21.345Z,40.10
2022-12-08T03:30:23.145Z,40.20
2022-12-08T03:32:38.897Z,40.10
2022-12-08T03:34:46.531Z,40.00
2022-12-08T03:36:49.600Z,39.90
2022-12-08T03:38:52.902Z,40.00
2022-12-08T03:41:14.226Z,39.80
2022-12-08T03:43:16.039Z,39.80
2022-12-08T03:45:17.702Z,39.80
2022-12-08T03:47:19.408Z,39.70
2022-12-08T03:49:21.169Z,39.40
2022-12-08T03:51:23.759Z,39.50
2022-12-08T03:53:28.245Z,39.40
2022-12-08T03:55:29.879Z,39.40
2022-12-08T03:57:31.620Z,39.40
2022-12-08T03:59:33.244Z,39.30
2022-12-08T04:01:35.026Z,39.00
2022-12-08T04:03:39.892Z,38.90
2022-12-08T04:05:41.650Z,38.80
2022-12-08T04:07:43.545Z,38.40
2022-12-08T04:09:45.432Z,38.30
2022-12-08T04:11:47.098Z,38.10
2022-12-08T04:13:49.861Z,37.80
2022-12-08T04:15:52.619Z,37.50
2022-12-08T04:17:54.284Z,37.40
2022-12-08T04:19:55.919Z,37.20
2022-12-08T04:21:57.638Z,37.00
2022-12-08T04:24:01.490Z,37.00
2022-12-08T04:26:06.426Z,37.00
2022-12-08T04:28:08.158Z,36.80
2022-12-08T04:30:12.760Z,36.70
2022-12-08T04:32:16.952Z,36.50
2022-12-08T04:34:20.919Z,36.60
2022-12-08T04:36:22.621Z,36.70
2022-12-08T04:38:24.334Z,36.60
2022-12-08T04:40:26.125Z,36.50
2022-12-08T04:42:29.333Z,36.60
2022-12-08T04:44:31.008Z,36.50
2022-12-08T04:46:32.766Z,36.30
2022-12-08T04:48:36.301Z,36.30
2022-12-08T04:50:42.925Z,36.30
2022-12-08T04:52:47.201Z,36.20
2022-12-08T04:54:49.101Z,36.20
2022-12-08T04:56:50.751Z,36.10
2022-12-08T04:58:52.805Z,36.10
2022-12-08T05:00:54.561Z,36.00
2022-12-08T05:02:56.393Z,36.00
2022-12-08T05:05:00.523Z,36.10
2022-12-08T05:07:02.218Z,36.20
2022-12-08T05:09:04.179Z,36.20
2022-12-08T05:11:08.343Z,36.20
2022-12-08T05:13:11.271Z,36.20
2022-12-08T05:15:12.883Z,36.10
2022-12-08T05:17:16.067Z,36.20
2022-12-08T05:19:18.212Z,36.10
2022-12-08T05:21:22.015Z,36.10
2022-12-08T05:23:23.667Z,36.00
2022-12-08T05:25:28.867Z,36.00
2022-12-08T05:27:30.549Z,36.00
2022-12-08T05:29:32.371Z,35.80
2022-12-08T05:31:34.100Z,35.70
2022-12-08T05:33:35.772Z,35.80
2022-12-08T05:35:40.056Z,35.70
2022-12-08T05:37:41.718Z,35.90
2022-12-08T05:39:44.155Z,35.70
2022-12-08T05:41:45.823Z,35.80
2022-12-08T05:43:48.052Z,35.70
2022-12-08T05:45:49.752Z,35.50
2022-12-08T05:47:53.721Z,35.70
2022-12-08T05:49:57.555Z,35.80
2022-12-08T05:51:59.277Z,35.80
2022-12-08T05:54:01.159Z,35.80
2022-12-08T05:56:02.822Z,35.80
2022-12-08T05:58:07.894Z,35.80
2022-12-08T06:00:10.542Z,35.90
2022-12-08T06:02:15.135Z,35.70
2022-12-08T06:04:16.940Z,35.40
2022-12-08T06:06:18.970Z,35.30
2022-12-08T06:08:23.193Z,35.00
2022-12-08T06:10:24.944Z,34.90
2022-12-08T06:12:26.677Z,34.90
2022-12-08T06:14:30.405Z,34.90
2022-12-08T06:16:32.304Z,34.80
2022-12-08T06:18:34.103Z,34.90
2022-12-08T06:20:35.874Z,34.80
2022-12-08T06:22:37.781Z,34.90
2022-12-08T06:24:39.471Z,34.80
2022-12-08T06:26:41.512Z,34.80
2022-12-08T06:28:43.801Z,34.80
2022-12-08T06:30:45.481Z,34.80
2022-12-08T06:32:47.111Z,34.80
2022-12-08T06:34:51.357Z,34.80
2022-12-08T06:36:53.048Z,34.80
2022-12-08T06:38:55.226Z,34.90
2022-12-08T06:40:58.450Z,34.80
2022-12-08T06:43:00.078Z,34.90
2022-12-08T06:45:11.424Z,34.70
2022-12-08T06:47:16.066Z,34.60
2022-12-08T06:49:17.755Z,34.50
2022-12-08T06:51:22.711Z,34.50
2022-12-08T06:53:26.578Z,34.40
2022-12-08T06:55:58.744Z,34.40
2022-12-08T06:57:53.989Z,34.50
2022-12-08T06:59:55.933Z,34.30
2022-12-08T07:01:57.634Z,34.40
2022-12-08T07:03:59.376Z,34.40
2022-12-08T07:06:04.123Z,34.20
2022-12-08T07:08:08.299Z,33.90
2022-12-08T07:10:10.937Z,33.90
2022-12-08T07:12:12.618Z,33.70
2022-12-08T07:14:14.592Z,33.70
2022-12-08T07:16:16.570Z,33.60
2022-12-08T07:18:18.315Z,33.60
2022-12-08T07:20:20.034Z,33.70
2022-12-08T07:22:24.194Z,34.30
2022-12-08T07:24:26.210Z,33.60
2022-12-08T07:26:29.138Z,33.80
2022-12-08T07:28:37.064Z,33.70
2022-12-08T07:30:41.729Z,33.60
2022-12-08T07:32:43.555Z,33.60
2022-12-08T07:34:47.179Z,33.70
2022-12-08T07:36:49.108Z,33.50
2022-12-08T07:38:53.939Z,33.60
2022-12-08T07:40:55.588Z,33.80
2022-12-08T07:42:57.208Z,33.80
2022-12-08T07:44:59.197Z,34.00
2022-12-08T07:47:03.253Z,33.90
2022-12-08T07:49:04.990Z,33.80
2022-12-08T07:51:06.752Z,33.90
2022-12-08T07:53:09.003Z,33.90
2022-12-08T07:55:12.188Z,34.00
2022-12-08T07:57:13.885Z,34.20
2022-12-08T07:59:15.644Z,34.40
2022-12-08T08:01:26.587Z,34.50
2022-12-08T08:03:28.466Z,34.70
2022-12-08T08:05:30.207Z,34.60
2022-12-08T08:07:32.272Z,34.50
2022-12-08T08:09:34.342Z,34.50
2022-12-08T08:11:36.533Z,34.50
2022-12-08T08:13:38.247Z,34.40
2022-12-08T08:15:40.668Z,34.20
2022-12-08T08:17:42.410Z,34.30
2022-12-08T08:19:45.651Z,34.50
2022-12-08T08:21:47.345Z,34.70
2022-12-08T08:23:49.278Z,34.80
2022-12-08T08:25:53.044Z,34.80
2022-12-08T08:27:55.005Z,34.70
2022-12-08T08:29:58.807Z,34.80
2022-12-08T08:32:00.519Z,34.60
2022-12-08T08:34:06.076Z,34.40
2022-12-08T08:36:09.250Z,34.10
2022-12-08T08:38:10.883Z,33.90
2022-12-08T08:40:12.749Z,33.90
2022-12-08T08:42:14.362Z,33.70
2022-12-08T08:44:15.975Z,33.30
2022-12-08T08:46:17.666Z,33.40
2022-12-08T08:48:20.553Z,33.50
2022-12-08T08:50:25.307Z,33.30
2022-12-08T08:52:26.987Z,33.30
2022-12-08T08:54:29.363Z,33.00
2022-12-08T08:56:34.087Z,33.10
2022-12-08T08:58:35.737Z,32.90
2022-12-08T09:00:37.358Z,32.80
2022-12-08T09:02:39.398Z,32.90
2022-12-08T09:04:41.129Z,33.10
2022-12-08T09:06:45.715Z,33.00
2022-12-08T09:08:47.809Z,32.70
2022-12-08T09:10:49.473Z,32.70
2022-12-08T09:12:51.870Z,32.80
2022-12-08T09:14:53.529Z,32.90
2022-12-08T09:16:56.326Z,32.90
2022-12-08T09:19:00.471Z,32.80
2022-12-08T09:21:07.266Z,32.90
2022-12-08T09:23:08.990Z,33.00
2022-12-08T09:25:10.700Z,33.10
2022-12-08T09:27:12.382Z,33.40
2022-12-08T09:29:17.569Z,33.40
2022-12-08T09:31:21.401Z,33.50
2022-12-08T09:33:23.433Z,33.60
2022-12-08T09:35:26.240Z,33.70
2022-12-08T09:37:27.884Z,33.70
2022-12-08T09:39:29.839Z,33.70
2022-12-08T09:41:48.725Z,33.70
2022-12-08T09:44:09.124Z,33.90
2022-12-08T09:46:13.429Z,33.70
2022-12-08T09:48:47.960Z,33.30
2022-12-08T09:50:57.846Z,33.50
2022-12-08T09:53:14.305Z,33.30
2022-12-08T09:55:59.505Z,33.10
2022-12-08T09:58:04.847Z,33.10
2022-12-08T10:00:08.054Z,32.70
2022-12-08T10:02:22.729Z,32.50
2022-12-08T10:04:37.071Z,32.50
2022-12-08T10:06:42.351Z,32.70
2022-12-08T10:09:00.665Z,32.90
2022-12-08T10:11:11.449Z,33.10
2022-12-08T10:13:35.211Z,33.00
2022-12-08T10:16:22.036Z,33.00
2022-12-08T10:18:32.248Z,33.10
2022-12-08T10:20:40.379Z,32.90
2022-12-08T10:22:44.926Z,32.90
2022-12-08T10:24:57.792Z,33.00
2022-12-08T10:27:07.947Z,33.00
2022-12-08T10:29:13.453Z,33.10
2022-12-08T10:31:21.412Z,33.00
2022-12-08T10:33:23.760Z,33.00
2022-12-08T10:35:41.781Z,33.20
2022-12-08T10:37:58.220Z,33.30
2022-12-08T10:40:04.026Z,33.60
2022-12-08T10:42:21.780Z,33.20
2022-12-08T10:44:23.444Z,33.30
2022-12-08T10:46:27.557Z,33.50
2022-12-08T10:48:31.208Z,33.40
2022-12-08T10:50:47.641Z,33.50
2022-12-08T10:53:08.635Z,33.60
2022-12-08T10:55:21.849Z,33.70
2022-12-08T10:57:25.247Z,33.70
2022-12-08T10:59:33.871Z,33.60
2022-12-08T11:01:39.222Z,33.70
2022-12-08T11:03:50.424Z,33.70
2022-12-08T11:05:56.457Z,33.60
2022-12-08T11:07:58.860Z,33.60
2022-12-08T11:10:00.870Z,33.60
2022-12-08T11:12:17.420Z,33.60
2022-12-08T11:14:26.616Z,33.70
2022-12-08T11:16:31.120Z,33.80
2022-12-08T11:18:42.348Z,33.90
2022-12-08T11:20:44.053Z,34.00
2022-12-08T11:22:54.409Z,33.80
2022-12-08T11:25:03.888Z,33.90
2022-12-08T11:27:06.863Z,33.80
2022-12-08T11:29:12.681Z,33.70
2022-12-08T11:31:38.389Z,33.80
2022-12-08T11:33:44.201Z,33.70
2022-12-08T11:35:52.782Z,33.70
2022-12-08T11:38:20.538Z,33.60
2022-12-08T11:40:28.276Z,33.40
2022-12-08T11:42:37.648Z,33.30
2022-12-08T11:44:47.644Z,33.30
2022-12-08T11:46:56.935Z,33.20
2022-12-08T11:49:06.676Z,33.30
2022-12-08T11:51:28.737Z,33.30
2022-12-08T11:53:38.892Z,33.30
2022-12-08T11:55:50.197Z,33.30
2022-12-08T11:57:53.643Z,33.20
2022-12-08T12:00:02.285Z,33.40
2022-12-08T12:02:24.316Z,33.40
2022-12-08T12:04:38.619Z,33.50
2022-12-08T12:07:19.406Z,33.50
2022-12-08T12:09:51.531Z,33.80
2022-12-08T12:12:19.181Z,33.10
2022-12-08T12:14:44.559Z,33.20
2022-12-08T12:16:57.919Z,33.20
2022-12-08T12:19:06.953Z,33.00
2022-12-08T12:21:26.255Z,33.10
2022-12-08T12:23:59.028Z,33.10
2022-12-08T12:26:05.377Z,33.00
2022-12-08T12:28:12.086Z,32.90
2022-12-08T12:30:26.511Z,32.80
2022-12-08T12:32:45.349Z,33.00
2022-12-08T12:34:54.496Z,33.10
2022-12-08T12:36:57.996Z,32.90
2022-12-08T12:39:01.047Z,33.10
2022-12-08T12:41:05.984Z,33.80
2022-12-08T12:43:10.357Z,33.10
2022-12-08T12:45:17.785Z,33.00
2022-12-08T12:47:59.793Z,33.00
2022-12-08T12:50:08.545Z,32.70
2022-12-08T12:52:10.293Z,32.20
2022-12-08T12:54:28.339Z,32.30
2022-12-08T12:57:05.278Z,32.40
2022-12-08T12:59:44.463Z,32.50
2022-12-08T13:01:56.720Z,32.20
2022-12-08T13:04:09.630Z,31.50
2022-12-08T13:06:19.229Z,30.90
2022-12-08T13:08:23.824Z,31.00
2022-12-08T13:10:29.053Z,31.00
2022-12-08T13:12:31.033Z,31.20
2022-12-08T13:14:36.044Z,31.30
2022-12-08T13:16:41.678Z,31.30
2022-12-08T13:18:49.141Z,31.30
2022-12-08T13:21:09.756Z,31.30
2022-12-08T13:23:26.031Z,31.10
2022-12-08T13:25:39.749Z,30.70
2022-12-08T13:27:55.689Z,30.60
2022-12-08T13:30:51.786Z,30.60
2022-12-08T13:35:23.429Z,30.40
2022-12-08T13:37:30.651Z,30.40
2022-12-08T13:39:49.787Z,30.50
2022-12-08T13:42:07.228Z,30.50
2022-12-08T13:47:24.715Z,30.50
2022-12-08T13:55:13.575Z,30.00
2022-12-08T13:57:10.490Z,30.20
2022-12-08T13:59:19.257Z,30.00
2022-12-08T14:01:25.693Z,30.20
2022-12-08T14:03:27.998Z,30.30
2022-12-08T14:06:10.483Z,30.40
2022-12-08T14:08:02.950Z,30.40
2022-12-08T14:10:25.810Z,30.00
2022-12-08T14:12:29.829Z,30.00
2022-12-08T14:15:01.809Z,29.90
2022-12-08T14:17:03.257Z,29.90
2022-12-08T14:19:26.488Z,29.70
2022-12-08T14:21:35.862Z,29.70
2022-12-08T14:23:38.301Z,29.70
2022-12-08T14:25:47.649Z,29.70
2022-12-08T14:27:50.071Z,29.90
2022-12-08T14:29:53.993Z,30.00
2022-12-08T14:31:55.981Z,30.00
2022-12-08T14:33:57.704Z,30.00
2022-12-08T14:35:59.719Z,29.80
2022-12-08T14:38:06.157Z,29.60
2022-12-08T14:40:23.668Z,29.60
2022-12-08T14:42:27.823Z,29.80
2022-12-08T14:44:33.092Z,29.80
2022-12-08T14:46:34.797Z,29.50
2022-12-08T14:48:36.448Z,29.70
2022-12-08T14:51:05.475Z,29.50
2022-12-08T14:53:17.257Z,29.50
2022-12-08T14:55:22.423Z,29.70
2022-12-08T14:57:39.873Z,29.50
2022-12-08T14:59:45.382Z,29.40
2022-12-08T15:01:52.027Z,29.40
2022-12-08T15:04:01.262Z,29.30
2022-12-08T15:06:07.817Z,29.30
2022-12-08T15:08:14.871Z,29.20
2022-12-08T15:10:16.821Z,29.20
2022-12-08T15:12:27.308Z,29.30
2022-12-08T15:14:36.631Z,29.30
2022-12-08T15:16:43.788Z,29.30
2022-12-08T15:18:51.858Z,29.50
2022-12-08T15:21:00.877Z,29.40
2022-12-08T15:23:05.705Z,29.60
2022-12-08T15:25:13.715Z,29.60
2022-12-08T15:27:20.700Z,29.70
2022-12-08T15:29:25.651Z,29.70
2022-12-08T15:31:27.582Z,29.90
2022-12-08T15:33:29.323Z,29.90
2022-12-08T15:35:34.654Z,30.00
2022-12-08T15:37:38.989Z,30.00
2022-12-08T15:39:40.632Z,30.00
2022-12-08T15:41:42.411Z,30.20
2022-12-08T15:43:47.160Z,30.20
2022-12-08T15:45:58.591Z,30.30
2022-12-08T15:48:02.164Z,30.30
2022-12-08T15:50:05.698Z,30.30
2022-12-08T15:52:27.314Z,30.40
2022-12-08T15:54:29.838Z,30.60
2022-12-08T15:56:41.087Z,30.50
2022-12-08T15:58:54.244Z,30.50
2022-12-08T16:00:57.973Z,30.60
2022-12-08T16:03:42.180Z,30.50
2022-12-08T16:05:42.857Z,30.60
2022-12-08T16:07:52.900Z,30.70
2022-12-08T16:09:56.940Z,30.80
2022-12-08T16:12:17.914Z,30.80
2022-12-08T16:15:15.956Z,30.90
2022-12-08T16:16:47.542Z,30.80
2022-12-08T16:18:51.028Z,30.90
2022-12-08T16:23:34.541Z,30.80
2022-12-08T16:26:00.128Z,30.70
2022-12-08T16:28:02.909Z,30.90
2022-12-08T16:30:08.798Z,30.80
2022-12-08T16:32:10.633Z,31.00
2022-12-08T16:34:12.496Z,31.00
2022-12-08T16:36:18.361Z,31.00
2022-12-08T16:38:20.577Z,31.10
2022-12-08T16:40:27.166Z,31.10
2022-12-08T16:42:39.643Z,31.20
2022-12-08T16:44:44.395Z,31.20
2022-12-08T16:46:53.329Z,31.20
2022-12-08T16:48:56.893Z,31.30
2022-12-08T16:50:58.657Z,31.30
2022-12-08T16:53:05.223Z,31.30
2022-12-08T16:55:11.375Z,31.40
2022-12-08T16:57:13.133Z,31.40
2022-12-08T16:59:14.769Z,31.40
2022-12-08T17:01:19.857Z,31.50
2022-12-08T17:03:26.187Z,31.50
2022-12-08T17:05:30.260Z,31.60
2022-12-08T17:07:32.181Z,31.50
2022-12-08T17:09:33.849Z,31.60
2022-12-08T17:11:42.626Z,31.50
2022-12-08T17:13:45.195Z,31.50
2022-12-08T17:15:46.853Z,31.50
2022-12-08T17:17:51.730Z,31.60
2022-12-08T17:19:55.561Z,31.50
2022-12-08T17:21:57.339Z,31.60
2022-12-08T17:23:59.109Z,31.50
2022-12-08T17:26:01.237Z,31.60
2022-12-08T17:28:05.318Z,31.70
2022-12-08T17:30:11.430Z,31.80
2022-12-08T17:32:13.289Z,31.80
2022-12-08T17:34:15.167Z,31.80
2022-12-08T17:36:17.553Z,31.90
2022-12-08T17:38:20.756Z,32.00
2022-12-08T17:40:25.550Z,32.00
2022-12-08T17:42:29.713Z,32.00
2022-12-08T17:44:33.249Z,32.00
2022-12-08T17:46:41.347Z,31.90
2022-12-08T17:48:44.455Z,32.00
2022-12-08T17:50:46.176Z,32.10
2022-12-08T17:52:50.943Z,32.10
2022-12-08T17:54:52.736Z,32.20
2022-12-08T17:56:54.957Z,32.20
2022-12-08T17:58:56.665Z,32.30
2022-12-08T18:00:58.335Z,32.20
2022-12-08T18:03:00.489Z,32.20
2022-12-08T18:05:05.086Z,32.30
2022-12-08T18:07:06.809Z,32.30
2022-12-08T18:09:09.840Z,32.20
2022-12-08T18:11:16.592Z,32.20
2022-12-08T18:13:18.436Z,32.30
2022-12-08T18:15:20.437Z,32.30
2022-12-08T18:17:24.377Z,32.30
2022-12-08T18:19:26.257Z,32.50
2022-12-08T18:21:30.665Z,32.40
2022-12-08T18:23:32.430Z,32.60
2022-12-08T18:25:36.495Z,32.50
2022-12-08T18:27:44.929Z,32.70
2022-12-08T18:29:46.712Z,32.60
2022-12-08T18:31:49.056Z,32.60
2022-12-08T18:33:52.511Z,32.60
2022-12-08T18:35:56.403Z,32.70
2022-12-08T18:38:00.106Z,32.60
2022-12-08T18:40:01.914Z,32.70
2022-12-08T18:42:22.643Z,32.60
2022-12-08T18:44:24.927Z,32.60
2022-12-08T18:46:26.636Z,32.70
2022-12-08T18:48:28.372Z,32.70
2022-12-08T18:50:30.056Z,32.70
2022-12-08T18:52:34.810Z,32.70
2022-12-08T18:55:05.073Z,32.70
2022-12-08T18:56:59.787Z,32.70
2022-12-08T18:59:07.041Z,32.80
2022-12-08T19:01:13.663Z,32.60
2022-12-08T19:03:15.337Z,32.50
2022-12-08T19:05:17.132Z,32.60
2022-12-08T19:07:19.851Z,32.50
2022-12-08T19:09:22.572Z,32.30
2022-12-08T19:11:27.786Z,32.20
2022-12-08T19:13:30.351Z,32.10
2022-12-08T19:15:33.556Z,32.10
2022-12-08T19:17:35.259Z,32.10
2022-12-08T19:19:36.910Z,32.10
2022-12-08T19:21:46.356Z,31.90
2022-12-08T19:23:55.793Z,31.90
2022-12-08T19:25:57.492Z,31.90
2022-12-08T19:27:59.221Z,31.80
2022-12-08T19:30:03.474Z,31.70
2022-12-08T19:32:05.464Z,31.80
2022-12-08T19:34:09.025Z,31.70
2022-12-08T19:36:14.559Z,31.60
2022-12-08T19:38:17.204Z,31.80
2022-12-08T19:40:39.221Z,31.80
2022-12-08T19:42:59.651Z,32.00
2022-12-08T19:45:05.735Z,31.90
2022-12-08T19:47:07.630Z,31.70
2022-12-08T19:49:11.800Z,31.70
2022-12-08T19:51:13.662Z,31.60
2022-12-08T19:53:15.901Z,31.50
2022-12-08T19:55:17.629Z,31.50
2022-12-08T19:57:20.308Z,31.20
2022-12-08T19:59:26.041Z,31.30
2022-12-08T20:01:27.750Z,31.30
2022-12-08T20:03:29.556Z,31.30
2022-12-08T20:05:33.231Z,31.30
2022-12-08T20:07:36.876Z,31.30
2022-12-08T20:09:38.569Z,31.30
2022-12-08T20:11:41.112Z,31.40
2022-12-08T20:13:45.355Z,31.40
2022-12-08T20:15:48.507Z,31.40
2022-12-08T20:17:50.300Z,31.50
2022-12-08T20:19:53.341Z,31.50
2022-12-08T20:21:55.575Z,31.50
2022-12-08T20:23:57.549Z,31.60
2022-12-08T20:26:01.831Z,31.80
2022-12-08T20:28:06.116Z,31.90
2022-12-08T20:30:13.360Z,31.90
2022-12-08T20:32:20.493Z,32.00
2022-12-08T20:34:22.338Z,32.00
2022-12-08T20:36:26.603Z,32.00
2022-12-08T20:38:31.147Z,32.10
2022-12-08T20:40:32.954Z,32.10
2022-12-08T20:42:34.699Z,32.00
2022-12-08T20:44:36.544Z,31.90
2022-12-08T20:46:38.610Z,32.00
2022-12-08T20:48:41.295Z,32.00
2022-12-08T20:50:43.189Z,32.00
2022-12-08T20:52:47.586Z,32.20
2022-12-08T20:54:49.622Z,32.20
2022-12-08T20:56:53.460Z,32.10
2022-12-08T20:58:57.197Z,31.90
2022-12-08T21:00:59.084Z,32.00
2022-12-08T21:03:01.231Z,32.00
2022-12-08T21:05:03.296Z,31.90
2022-12-08T21:07:05.553Z,31.80
2022-12-08T21:09:07.452Z,31.80
2022-12-08T21:11:09.787Z,31.70
2022-12-08T21:13:14.287Z,31.70
2022-12-08T21:15:16.175Z,31.70
2022-12-08T21:17:20.927Z,31.80
2022-12-08T21:19:23.022Z,31.90
2022-12-08T21:21:25.131Z,31.80
2022-12-08T21:23:27.275Z,31.90
2022-12-08T21:25:29.189Z,31.70
2022-12-08T21:27:31.110Z,31.60
2022-12-08T21:29:32.866Z,31.70
2022-12-08T21:31:36.190Z,31.60
2022-12-08T21:33:38.745Z,31.60
2022-12-08T21:35:42.889Z,31.30
2022-12-08T21:37:46.839Z,31.20
2022-12-08T21:39:48.667Z,31.00
2022-12-08T21:42:09.212Z,30.90
2022-12-08T21:44:13.209Z,31.00
2022-12-08T21:46:17.132Z,30.90
2022-12-08T21:48:19.054Z,31.00
2022-12-08T21:50:20.894Z,31.20
2022-12-08T21:52:22.725Z,31.40
2022-12-08T21:54:24.722Z,31.40
2022-12-08T21:56:28.611Z,31.50
2022-12-08T21:58:32.382Z,31.50
2022-12-08T22:00:34.526Z,31.50
2022-12-08T22:02:36.440Z,31.70
2022-12-08T22:04:38.808Z,31.60
2022-12-08T22:06:40.607Z,31.70
2022-12-08T22:08:42.811Z,31.80
2022-12-08T22:10:48.556Z,31.70
2022-12-08T22:12:52.664Z,31.50
2022-12-08T22:14:54.471Z,31.30
2022-12-08T22:16:56.302Z,31.20
2022-12-08T22:18:59.229Z,30.90
2022-12-08T22:21:01.208Z,30.90
2022-12-08T22:23:03.079Z,31.00
2022-12-08T22:25:10.950Z,31.00
2022-12-08T22:27:12.819Z,30.80
2022-12-08T22:29:14.854Z,30.80
2022-12-08T22:31:21.424Z,30.80
2022-12-08T22:33:23.268Z,30.80
2022-12-08T22:35:24.943Z,30.60
2022-12-08T22:37:26.603Z,30.70
2022-12-08T22:39:28.250Z,30.60
2022-12-08T22:41:29.956Z,30.50
2022-12-08T22:43:34.681Z,30.60
2022-12-08T22:45:36.524Z,30.50
2022-12-08T22:47:38.416Z,30.50
2022-12-08T22:49:40.282Z,30.40
2022-12-08T22:51:41.949Z,30.60
2022-12-08T22:53:44.525Z,30.60
2022-12-08T22:55:46.507Z,30.70
2022-12-08T22:57:48.298Z,30.70
2022-12-08T22:59:49.974Z,30.90
2022-12-08T23:01:53.963Z,30.70
2022-12-08T23:03:56.766Z,31.00
2022-12-08T23:06:01.710Z,31.00
2022-12-08T23:08:05.561Z,31.10
2022-12-08T23:10:10.034Z,31.10
2022-12-08T23:12:12.246Z,31.10
2022-12-08T23:14:14.944Z,31.10
2022-12-08T23:16:16.856Z,31.10
2022-12-08T23:18:19.312Z,31.10
2022-12-08T23:20:21.710Z,31.10
2022-12-08T23:22:23.477Z,31.20
2022-12-08T23:24:25.147Z,31.20
2022-12-08T23:26:29.773Z,31.20
2022-12-08T23:28:31.581Z,31.30
2022-12-08T23:30:33.605Z,31.40
2022-12-08T23:32:35.479Z,31.60
2022-12-08T23:34:39.392Z,31.80
2022-12-08T23:36:43.988Z,32.00
2022-12-08T23:38:48.113Z,32.00
2022-12-08T23:40:49.871Z,32.00
2022-12-08T23:42:51.622Z,31.90
2022-12-08T23:44:55.723Z,32.10
2022-12-08T23:47:00.327Z,32.40
2022-12-08T23:49:02.402Z,32.30
2022-12-08T23:51:04.198Z,32.20
2022-12-08T23:53:05.892Z,32.40
2022-12-08T23:55:08.525Z,33.10
2022-12-08T23:57:10.272Z,32.40
2022-12-08T23:59:12.012Z,32.30
